Logan Peak - 24 Hour Table
Date & TimeSolar
Radiation
(W/m²)
Wind
Speed
(mph)
Wind
Direction
(degrees)
Air
Temperature
(°F)
Relative
Humidity
(%)
Barometeric
Pressure
(inHg)
2017/05/23 11:00 835 6.1 290 46.5 61 30.02
2017/05/23 10:00 733 5.6 303 47.0 55 30.02
2017/05/23 09:00 605 6.2 316 46.1 53 30.02
2017/05/23 08:00 420 8.3 335 43.5 53 30.02
2017/05/23 07:00 155 9.7 330 42.9 55 30.01
2017/05/23 06:00 55 9.2 319 40.9 58 30.01
2017/05/23 05:00 0 6.8 314 39.6 79 30.02
2017/05/23 04:00 0 5.1 312 39.6 78 30.02
2017/05/23 03:00 0 7.8 313 39.6 81 30.02
2017/05/23 02:00 0 9.4 312 40.1 78 30.02
2017/05/23 01:00 0 9.6 311 40.8 76 30.02
2017/05/23 00:00 0 8.9 321 40.7 74 30.03
2017/05/22 23:00 0 8.2 17 40.1 82 30.02
2017/05/22 22:00 0 10.0 311 41.5 69 30.03
2017/05/22 21:00 0 13.6 308 41.8 63 30.02
2017/05/22 20:00 27 13.2 302 42.5 67 30.01
2017/05/22 19:00 179 13.7 297 44.0 78 30.01
2017/05/22 18:00 185 12.6 289 43.2 80 30.01
2017/05/22 17:00 335 14.0 273 43.7 79 30.00
2017/05/22 16:00 487 14.6 271 43.5 80 30.00
2017/05/22 15:00 505 15.8 269 42.2 79 30.01
2017/05/22 14:00 722 12.7 280 42.1 79 30.02
2017/05/22 13:00 590 10.7 295 40.7 77 30.02
2017/05/22 12:00 423 11.0 304 39.9 85 30.03